Flight Track Log - Related Links

Times and Time Zones

All times are in EDT time to prevent confusion due to time zone crossing. See the DAL1117 flight status page for this flight to view local times or setup timezone preferences in your user account.

Time Position Orientation Groundspeed Altitude Reporting Facility
EDT Latitude Longitude Course Direction KTS MPH feet Rate Location/Type
Thu 10:10:51 PM 42.2286 -83.3650 209° Southwest 169 194 1,300  Level Cleveland Center
Thu 10:12:10 PM 42.3011 -83.3767 353° North 254 292 2,900 1,971 Climbing Cleveland Center
Thu 10:13:11 PM 42.3758 -83.3883 353° North 262 302 5,900 2,517 Climbing Cleveland Center
Thu 10:14:33 PM 42.3922 -83.4847 283° West 273 314 8,900 2,324 Climbing Cleveland Center
Thu 10:15:00 PM 42.1743 -84.1557 217° Southwest  Level Estimated
Thu 10:15:33 PM 42.3164 -83.5233 201° Southwest 242 278 11,400  Level Cleveland Center
Thu 10:16:00 PM 42.1660 -84.3160 209° Southwest  Level Estimated
Thu 10:16:33 PM 42.2258 -83.5583 196° South 286 329 12,700  Level Cleveland Center
Thu 10:17:33 PM 42.1308 -83.5986 197° South 339 390 14,500 1,650 Climbing Cleveland Center
Thu 10:18:33 PM 42.0297 -83.6414 197° South 363 418 16,000 1,150 Climbing Cleveland Center
Thu 10:19:33 PM 41.9242 -83.6894 199° South 386 444 16,800 1,400 Climbing Cleveland Center
Thu 10:20:33 PM 41.8186 -83.7317 197° South 399 459 18,800 1,900 Climbing Cleveland Center
Thu 10:21:33 PM 41.7111 -83.7794 198° South 405 466 20,600 1,800 Climbing Cleveland Center
Thu 10:22:33 PM 41.6111 -83.8467 207° Southwest 411 473 22,400 1,600 Climbing Cleveland Center
Thu 10:23:33 PM 41.5131 -83.9247 211° Southwest 411 473 23,800 1,250 Climbing Cleveland Center
Thu 10:24:33 PM 41.4128 -84.0000 209° Southwest 416 479 24,900 1,100 Climbing Cleveland Center
Thu 10:25:33 PM 41.3144 -84.0833 212° Southwest 422 486 26,000 1,100 Climbing Cleveland Center
Thu 10:26:33 PM 41.2319 -84.1867 223° Southwest 406 467 27,100 969 Climbing Cleveland Center
Thu 10:27:43 PM 41.1925 -84.3553 253° West 412 474 28,100 916 Climbing Chicago Center
Thu 10:28:44 PM 41.1539 -84.5036 251° West 421 484 29,100 885 Climbing Chicago Center
Thu 10:29:45 PM 41.1164 -84.6519 251° West 423 487 29,900 683 Climbing Chicago Center
Thu 10:30:47 PM 41.0775 -84.8031 251° West 429 494 30,500 488 Climbing Chicago Center
Thu 10:31:48 PM 41.0378 -84.9569 251° West 436 502 30,900 492 Climbing Chicago Center
Thu 10:32:49 PM 40.9975 -85.1114 251° West 439 505 31,500 537 Climbing Chicago Center
Thu 10:33:51 PM 40.9686 -85.2697 256° West 443 510 32,000 244 Climbing Chicago Center
Thu 10:34:52 PM 40.9492 -85.4267 261° West 431 496 32,000  Level Chicago Center
Thu 10:35:54 PM 40.9294 -85.5867 261° West 438 504 32,000  Level Chicago Center
Thu 10:36:55 PM 40.9100 -85.7461 261° West 438 504 32,000  Level Chicago Center
Thu 10:37:56 PM 40.8861 -85.9361 261° West 437 503 32,000  Level Chicago Center
Thu 10:38:58 PM 40.8653 -86.0944 260° West 437 503 32,000  Level Chicago Center
Thu 10:39:59 PM 40.8456 -86.2525 261° West 435 501 32,000  Level Chicago Center
Thu 10:41:00 PM 40.8236 -86.4097 260° West 437 503 32,000  Level Chicago Center
Thu 10:42:02 PM 40.8025 -86.5700 260° West 441 507 32,000  Level Chicago Center
Thu 10:43:03 PM 40.7800 -86.7456 260° West 438 504 32,000  Level Chicago Center
Thu 10:44:04 PM 40.7581 -86.9058 260° West 442 509 32,000  Level Chicago Center
Thu 10:45:06 PM 40.7361 -87.0631 260° West 440 506 32,000  Level Chicago Center
Thu 10:46:07 PM 40.7136 -87.2208 259° West 440 506 32,000  Level Chicago Center
Thu 10:47:08 PM 40.6814 -87.3772 255° West 442 509 32,000  Level Chicago Center
Thu 10:48:10 PM 40.6519 -87.5319 256° West 439 505 32,000  Level Chicago Center
Thu 10:49:11 PM 40.6208 -87.6875 255° West 439 505 32,000  Level Chicago Center
Thu 10:50:12 PM 40.5894 -87.8450 255° West 445 512 32,000  Level Chicago Center
Thu 10:51:14 PM 40.5522 -88.0331 255° West 445 512 32,000  Level Chicago Center
Thu 10:52:15 PM 40.5197 -88.1903 255° West 446 513 32,000  Level Chicago Center
Thu 10:53:16 PM 40.4878 -88.3458 255° West 445 512 32,000  Level Chicago Center
Thu 10:54:17 PM 40.4556 -88.5014 255° West 445 512 32,000  Level Chicago Center
Thu 10:55:18 PM 40.4253 -88.6428 254° West 446 513 32,000  Level Chicago Center
Thu 10:56:20 PM 40.3917 -88.8006 254° West 449 517 32,000  Level Chicago Center
Thu 10:57:21 PM 40.3586 -88.9578 255° West 447 514 32,000  Level Chicago Center
Thu 10:58:22 PM 40.3183 -89.1467 254° West 448 516 32,000  Level Chicago Center
Thu 10:59:23 PM 40.2833 -89.3069 254° West 453 521 32,000  Level Chicago Center
Thu 11:00:24 PM 40.2483 -89.4644 254° West 449 517 32,000  Level Chicago Center
Thu 11:01:25 PM 40.2128 -89.6239 254° West 453 521 32,000  Level Chicago Center
Thu 11:02:26 PM 40.1775 -89.7831 254° West 454 522 32,000  Level Chicago Center
Thu 11:03:27 PM 40.1431 -89.9428 254° West 454 522 32,000  Level Chicago Center
Thu 11:04:28 PM 40.1050 -90.1050 253° West 462 532 32,000  Level Chicago Center
Thu 11:05:29 PM 40.0692 -90.2647 254° West 459 528 32,000  Level Chicago Center
Thu 11:06:30 PM 40.0342 -90.4222 254° West 449 517 32,000  Level Chicago Center
Thu 11:07:07 PM 40.0131 -90.5206 254° West 456 525 32,000  Level Kansas City Center
Thu 11:08:08 PM 39.9764 -90.6794 253° West 456 525 32,000  Level Kansas City Center
Thu 11:09:10 PM 39.9394 -90.8381 253° West 457 526 32,000  Level Kansas City Center
Thu 11:10:11 PM 39.9036 -90.9922 253° West 455 524 32,000  Level Kansas City Center
Thu 11:11:12 PM 39.8661 -91.1514 253° West 460 529 32,000  Level Kansas City Center
Thu 11:12:14 PM 39.8208 -91.3417 253° West 460 529 32,000  Level Kansas City Center
Thu 11:13:15 PM 39.7836 -91.4992 253° West 459 528 32,000  Level Kansas City Center
Thu 11:14:17 PM 39.7456 -91.6578 253° West 461 531 32,000  Level Kansas City Center
Thu 11:15:18 PM 39.7081 -91.8136 253° West 458 527 32,000  Level Kansas City Center
Thu 11:16:19 PM 39.6692 -91.9706 252° West 458 527 32,000  Level Kansas City Center
Thu 11:17:21 PM 39.6314 -92.1261 253° West 457 526 32,000  Level Kansas City Center
Thu 11:18:22 PM 39.5942 -92.2814 253° West 453 521 32,000  Level Kansas City Center
Thu 11:19:23 PM 39.5553 -92.4367 252° West 455 524 32,000  Level Kansas City Center
Thu 11:20:25 PM 39.5089 -92.6225 252° West 454 522 32,000  Level Kansas City Center
Thu 11:21:26 PM 39.4692 -92.7781 252° West 457 526 32,000  Level Kansas City Center
Thu 11:22:27 PM 39.4297 -92.9339 252° West 457 526 32,000  Level Kansas City Center
Thu 11:23:29 PM 39.3897 -93.0875 251° West 455 524 32,000  Level Kansas City Center
Thu 11:24:30 PM 39.3503 -93.2425 252° West 456 525 32,000  Level Kansas City Center
Thu 11:25:31 PM 39.3097 -93.3969 251° West 457 526 32,000  Level Kansas City Center
Thu 11:26:33 PM 39.2686 -93.5644 252° West 455 524 32,000  Level Kansas City Center
Thu 11:27:34 PM 39.2314 -93.7100 252° West 446 513 32,000  Level Kansas City Center
Thu 11:28:35 PM 39.1861 -93.8811 251° West 450 518 32,000  Level Kansas City Center
Thu 11:29:36 PM 39.1475 -94.0269 251° West 449 517 32,000  Level Kansas City Center
Thu 11:30:38 PM 39.1008 -94.2000 251° West 456 525 32,000  Level Kansas City Center
Thu 11:31:39 PM 39.0611 -94.3458 251° West 452 520 32,000  Level Kansas City Center
Thu 11:32:40 PM 39.0219 -94.4928 251° West 453 521 32,000  Level Kansas City Center
Thu 11:33:42 PM 38.9750 -94.6628 250° West 450 518 32,000  Level Kansas City Center
Thu 11:34:43 PM 38.9350 -94.8097 251° West 452 520 32,000  Level Kansas City Center
Thu 11:35:44 PM 38.8947 -94.9569 251° West 453 521 32,000  Level Kansas City Center
Thu 11:36:46 PM 38.8472 -95.1272 250° West 451 519 32,000  Level Kansas City Center
Thu 11:37:47 PM 38.8072 -95.2728 251° West 448 516 32,000  Level Kansas City Center
Thu 11:38:48 PM 38.7667 -95.4186 250° West 451 519 32,000  Level Kansas City Center
Thu 11:39:49 PM 38.7197 -95.5892 251° West 453 521 32,000  Level Kansas City Center
Thu 11:40:50 PM 38.6783 -95.7333 250° West 451 519 32,000  Level Kansas City Center
Thu 11:41:52 PM 38.6317 -95.9003 250° West 445 512 32,000  Level Kansas City Center
Thu 11:42:53 PM 38.5908 -96.0419 250° West 444 511 32,000  Level Kansas City Center
Thu 11:43:54 PM 38.5500 -96.1839 250° West 444 511 32,000  Level Kansas City Center
Thu 11:44:55 PM 38.5017 -96.3503 250° West 446 513 32,000 49 Level Kansas City Center
Thu 11:45:57 PM 38.4594 -96.4981 250° West 449 517 32,100  Climbing Kansas City Center
Thu 11:46:58 PM 38.4200 -96.6317 249° West 445 512 32,000 -49 Descending Kansas City Center
Thu 11:47:59 PM 38.3772 -96.7781 250° West 442 509 32,000  Level Kansas City Center
Thu 11:49:00 PM 38.3344 -96.9244 250° West 441 507 32,000  Level Kansas City Center
Thu 11:50:01 PM 38.2822 -97.1006 249° West 444 511 32,000  Level Kansas City Center
Thu 11:51:03 PM 38.2383 -97.2478 249° West 445 512 32,000  Level Kansas City Center
Thu 11:52:04 PM 38.1942 -97.3942 249° West 445 512 32,000  Level Kansas City Center
Thu 11:53:05 PM 38.1494 -97.5397 249° West 440 506 32,000  Level Kansas City Center
Thu 11:54:06 PM 38.1050 -97.6858 249° West 444 511 32,000  Level Kansas City Center
Thu 11:55:07 PM 38.0622 -97.8281 249° West 444 511 32,000  Level Kansas City Center
Thu 11:56:08 PM 38.0189 -97.9731 249° West 449 517 32,000  Level Kansas City Center
Thu 11:57:10 PM 37.9647 -98.1456 248° West 450 518 32,000  Level Kansas City Center
Thu 11:58:11 PM 37.9200 -98.2906 249° West 446 513 32,000  Level Kansas City Center
Thu 11:59:12 PM 37.8744 -98.4361 248° West 446 513 32,000  Level Kansas City Center
Fri 12:00:13 AM 37.8275 -98.5817 248° West 448 516 32,000  Level Kansas City Center
Fri 12:01:14 AM 37.7819 -98.7272 248° West 447 514 32,000  Level Kansas City Center
Fri 12:02:15 AM 37.7350 -98.8717 248° West 445 512 32,000  Level Kansas City Center
Fri 12:03:17 AM 37.6894 -99.0153 248° West 443 510 32,000  Level Kansas City Center
Fri 12:04:18 AM 37.6431 -99.1594 248° West 443 510 32,000  Level Kansas City Center
Fri 12:05:19 AM 37.5967 -99.3031 248° West 443 510 32,000  Level Kansas City Center
Fri 12:06:20 AM 37.5422 -99.4719 248° West 442 509 32,000  Level Kansas City Center
Fri 12:07:21 AM 37.4972 -99.6097 248° West 443 510 32,000  Level Kansas City Center
Fri 12:08:22 AM 37.4519 -99.7483 248° West 446 513 32,000  Level Kansas City Center
Fri 12:09:23 AM 37.3986 -99.9103 248° West 448 516 32,000  Level Kansas City Center
Fri 12:10:24 AM 37.3539 -100.0475 248° West 445 512 32,000  Level Kansas City Center
Fri 12:11:26 AM 37.3006 -100.2069 247° West 442 509 32,000  Level Kansas City Center
Fri 12:12:27 AM 37.2556 -100.3436 248° West 441 507 32,000  Level Kansas City Center
Fri 12:13:28 AM 37.2106 -100.4792 247° West 440 506 32,000  Level Kansas City Center
Fri 12:14:29 AM 37.1569 -100.6369 247° West 439 505 32,000  Level Kansas City Center
Fri 12:15:30 AM 37.1106 -100.7725 247° West 439 505 32,000  Level Kansas City Center
Fri 12:16:31 AM 37.0669 -100.9081 248° West 439 505 32,000  Level Kansas City Center
Fri 12:17:32 AM 37.0528 -101.0797 264° West 444 511 32,000  Level Kansas City Center
Fri 12:18:33 AM 37.0656 -101.2278 276° West 446 513 32,000  Level Kansas City Center
Fri 12:19:34 AM 37.0775 -101.3753 276° West 445 512 32,000  Level Kansas City Center
Fri 12:19:51 AM 37.0817 -101.4250 276° West 446 513 32,000  Level Albuquerque Center
Fri 12:20:52 AM 37.0936 -101.5728 276° West 446 513 32,000  Level Albuquerque Center
Fri 12:21:53 AM 37.1061 -101.7450 275° West 446 513 32,000  Level Albuquerque Center
Fri 12:22:54 AM 37.1181 -101.8933 276° West 446 513 32,000 49 Level Albuquerque Center
Fri 12:23:55 AM 37.1286 -102.0419 275° West 447 514 32,100  Climbing Albuquerque Center
Fri 12:24:56 AM 37.1400 -102.1994 275° West 445 512 32,000 -49 Descending Albuquerque Center
Fri 12:25:57 AM 37.1358 -102.3619 268° West 444 511 32,000  Level Albuquerque Center
Fri 12:26:58 AM 37.1286 -102.5186 267° West 442 509 32,000  Level Albuquerque Center
Fri 12:27:59 AM 37.1203 -102.6656 266° West 442 509 32,000  Level Albuquerque Center
Fri 12:29:00 AM 37.1144 -102.8361 268° West 439 505 32,000  Level Albuquerque Center
Fri 12:30:01 AM 37.1056 -102.9819 266° West 439 505 32,000  Level Albuquerque Center
Fri 12:31:02 AM 37.0994 -103.1286 267° West 440 506 32,000  Level Albuquerque Center
Fri 12:32:03 AM 37.0906 -103.3008 266° West 442 509 32,000  Level Albuquerque Center
Fri 12:33:04 AM 37.0833 -103.4475 267° West 441 507 32,000  Level Albuquerque Center
Fri 12:34:05 AM 37.0750 -103.5958 266° West 443 510 32,000  Level Albuquerque Center
Fri 12:35:06 AM 37.0658 -103.7667 266° West 441 507 32,000  Level Albuquerque Center
Fri 12:36:07 AM 37.0586 -103.9131 267° West 439 505 32,000  Level Albuquerque Center
Fri 12:37:07 AM 37.0492 -104.0592 265° West 437 503 32,000  Level Albuquerque Center
Fri 12:38:08 AM 37.0394 -104.2294 266° West 438 504 32,000  Level Albuquerque Center
Fri 12:39:09 AM 37.0303 -104.3753 266° West 437 503 32,000  Level Albuquerque Center
Fri 12:40:10 AM 37.0228 -104.5217 266° West 438 504 32,000  Level Albuquerque Center
Fri 12:41:10 AM 37.0114 -104.6914 265° West 438 504 32,000  Level Albuquerque Center
Fri 12:42:16 AM 37.0008 -104.8397 265° West 440 506 32,000  Level Denver Center
Fri 12:43:17 AM 36.9914 -104.9814 265° West 438 504 32,000  Level Denver Center
Fri 12:44:18 AM 36.9800 -105.1625 266° West 438 504 32,000  Level Denver Center
Fri 12:45:19 AM 36.9717 -105.2978 266° West 436 502 32,000  Level Denver Center
Fri 12:46:19 AM 36.9594 -105.4692 265° West 442 509 32,000 50 Level Denver Center
Fri 12:47:20 AM 36.9492 -105.6169 265° West 446 513 32,100  Climbing Denver Center
Fri 12:48:21 AM 36.9383 -105.7628 265° West 442 509 32,000 -49 Descending Denver Center
Fri 12:49:22 AM 36.9264 -105.9322 265° West 439 505 32,000  Level Denver Center
Fri 12:50:23 AM 36.9153 -106.0764 265° West 435 501 32,000  Level Denver Center
Fri 12:51:23 AM 36.9050 -106.2294 265° West 430 495 32,000 50 Level Denver Center
Fri 12:52:24 AM 36.8939 -106.3719 264° West 431 496 32,100 393 Climbing Denver Center
Fri 12:53:25 AM 36.8808 -106.5419 265° West 439 505 32,800 836 Climbing Denver Center
Fri 12:54:26 AM 36.8686 -106.6881 264° West 443 510 33,800 595 Climbing Denver Center
Fri 12:55:26 AM 36.8575 -106.8333 265° West 440 506 34,000 99 Climbing Denver Center
Fri 12:56:27 AM 36.8433 -107.0022 264° West 438 504 34,000  Level Denver Center
Fri 12:57:28 AM 36.8319 -107.1475 264° West 440 506 34,000  Level Denver Center
Fri 12:58:28 AM 36.8189 -107.2925 264° West 440 506 34,000  Level Denver Center
Fri 12:59:29 AM 36.8044 -107.4631 264° West 442 509 34,000  Level Denver Center
Fri 01:00:30 AM 36.7914 -107.6081 264° West 440 506 34,000  Level Denver Center
Fri 01:01:30 AM 36.7794 -107.7528 264° West 440 506 34,000  Level Denver Center
Fri 01:02:31 AM 36.7639 -107.9219 264° West 439 505 34,000  Level Denver Center
Fri 01:03:32 AM 36.7517 -108.0675 264° West 442 509 34,000  Level Denver Center
Fri 01:04:32 AM 36.7383 -108.2131 264° West 443 510 34,000  Level Denver Center
Fri 01:05:33 AM 36.7250 -108.3844 265° West 444 511 34,000  Level Denver Center
Fri 01:06:33 AM 36.7125 -108.5308 264° West 447 514 34,000  Level Denver Center
Fri 01:07:34 AM 36.6997 -108.6764 264° West 444 511 34,000  Level Denver Center
Fri 01:08:35 AM 36.6847 -108.8472 264° West 446 513 34,000  Level Denver Center
Fri 01:09:35 AM 36.6714 -108.9911 263° West 441 507 34,000  Level Denver Center
Fri 01:10:36 AM 36.6589 -109.1353 264° West 441 507 34,000  Level Denver Center
Fri 01:11:37 AM 36.6431 -109.3006 263° West 435 501 34,000  Level Denver Center
Fri 01:12:37 AM 36.6300 -109.4453 264° West 440 506 34,000  Level Denver Center
Fri 01:13:38 AM 36.6158 -109.5903 263° West 443 510 34,000  Level Denver Center
Fri 01:14:38 AM 36.5992 -109.7603 263° West 446 513 34,000  Level Denver Center
Fri 01:15:39 AM 36.5856 -109.9069 263° West 447 514 34,000  Level Denver Center
Fri 01:16:39 AM 36.5714 -110.0517 263° West 443 510 34,000  Level Denver Center
Fri 01:17:40 AM 36.5569 -110.2003 263° West 437 503 34,000  Level Denver Center
Fri 01:18:40 AM 36.5414 -110.3489 263° West 435 501 34,000  Level Denver Center
Fri 01:19:41 AM 36.5267 -110.5000 263° West 439 505 34,000  Level Denver Center
Fri 01:20:41 AM 36.5053 -110.6492 260° West 437 503 34,000 -298 Level Denver Center
Fri 01:21:42 AM 36.4706 -110.7928 253° West 434 499 33,400 -793 Descending Denver Center
Fri 01:22:42 AM 36.4361 -110.9386 254° West 439 505 32,400 -1,041 Descending Denver Center
Fri 01:23:43 AM 36.3936 -111.1128 253° West 438 504 31,300 -1,041 Descending Denver Center
Fri 01:24:43 AM 36.3600 -111.2561 254° West 436 502 30,300 -650 Descending Denver Center
Fri 01:25:43 AM 36.3267 -111.3972 254° West 430 495 30,000 -149 Descending Denver Center
Fri 01:26:44 AM 36.2931 -111.5394 254° West 430 495 30,000  Level Denver Center
Fri 01:27:44 AM 36.2589 -111.6814 253° West 429 494 30,000  Level Denver Center
Fri 01:28:45 AM 36.2247 -111.8222 253° West 428 493 30,000  Level Denver Center
Fri 01:29:23 AM 36.2050 -111.9067 254° West 424 488 30,000 -606 Level Los Angeles Center
Fri 01:30:24 AM 36.1686 -112.0483 252° West 433 498 29,000 -927 Descending Los Angeles Center
Fri 01:31:26 AM 36.1350 -112.1850 253° West 426 490 28,100 -927 Descending Los Angeles Center
Fri 01:32:27 AM 36.1033 -112.3200 254° West 409 471 27,100 -984 Descending Los Angeles Center
Fri 01:33:28 AM 36.0711 -112.4478 253° West 391 450 26,100 -934 Descending Los Angeles Center
Fri 01:34:29 AM 36.0394 -112.5667 252° West 367 422 25,200 -927 Descending Los Angeles Center
Fri 01:35:31 AM 36.0094 -112.6847 253° West 362 417 24,200 -889 Descending Los Angeles Center
Fri 01:36:44 AM 35.9783 -112.8014 252° West 359 413 23,200 -1,030 Descending Los Angeles Center
Fri 01:37:45 AM 35.9472 -112.9586 256° West 357 411 21,900 -1,131 Descending Los Angeles Center
Fri 01:38:46 AM 35.9294 -113.0942 261° West 390 449 20,900 -934 Descending Los Angeles Center
Fri 01:39:47 AM 35.9111 -113.2225 260° West 390 449 20,000 -927 Descending Los Angeles Center
Fri 01:40:49 AM 35.8942 -113.3447 260° West 372 428 19,000 -1,024 Descending Los Angeles Center
Fri 01:41:50 AM 35.8767 -113.4661 260° West 365 420 17,900 -1,082 Descending Los Angeles Center
Fri 01:42:51 AM 35.8583 -113.5956 260° West 362 417 16,800 -1,033 Descending Los Angeles Center
Fri 01:43:52 AM 35.8403 -113.7194 260° West 366 421 15,800 -984 Descending Los Angeles Center
Fri 01:44:53 AM 35.8225 -113.8442 260° West 369 425 14,800 -934 Descending Los Angeles Center
Fri 01:45:54 AM 35.8036 -113.9686 259° West 370 426 13,900 -1,029 Descending Los Angeles Center
Fri 01:46:38 AM 35.7878 -114.0764 260° West 363 418 13,000 -1,180 Descending Los Angeles Center
Fri 01:46:55 AM 35.7819 -114.1108 258° West 354 407 12,700 -977 Descending Los Angeles Center
Fri 01:47:21 AM 35.7739 -114.1581 258° West 355 409 12,300 -689 Descending Los Angeles Center
Fri 01:47:56 AM 35.7656 -114.2211 261° West 332 382 12,000 -231 Descending Los Angeles Center
Fri 01:48:39 AM 35.7581 -114.2886 262° West 314 361 12,000 -98 Level Los Angeles Center
Fri 01:48:57 AM 35.7519 -114.3236 258° West 310 357 11,900 -837 Descending Los Angeles Center
Fri 01:49:22 AM 35.7692 -114.3669 296° West 320 368 11,400 -984 Descending Los Angeles Center
Fri 01:49:58 AM 35.8047 -114.4114 315° West 335 386 10,900 -885 Descending Los Angeles Center
Fri 01:50:23 AM 35.8369 -114.4478 318° Northwest 339 390 10,500 -787 Descending Los Angeles Center
Fri 01:50:59 AM 35.8725 -114.4925 314° West 338 389 10,100 -700 Descending Los Angeles Center
Fri 01:51:23 AM 35.9022 -114.5267 317° Northwest 333 383 9,800 -590 Descending Los Angeles Center
Fri 01:52:00 AM 35.9367 -114.5658 317° Northwest 323 372 9,500 -1,129 Descending Los Angeles Center
Fri 01:52:48 AM 35.9878 -114.6283 315° West 309 356 8,200 -928 Descending Los Angeles Center
Fri 01:53:37 AM 36.0367 -114.6836 318° Northwest 285 328 8,000 -162 Descending Los Angeles Center
Fri 01:54:02 AM 36.0547 -114.7006 323° Northwest 280 322 8,000 -91 Level Los Angeles Center
Fri 01:54:43 AM 36.0731 -114.7594 291° West 234 269 7,900 -393 Descending Los Angeles Center
Fri 01:55:03 AM 36.0739 -114.7736 274° West 240 276 7,600 -1,200 Descending Los Angeles Center
Fri 01:55:38 AM 36.0744 -114.8253 271° West 208 239 6,800 -1,180 Descending Los Angeles Center
Fri 01:56:04 AM 36.0731 -114.8461 265° West 221 254 6,400 -984 Descending Los Angeles Center
Fri 01:56:39 AM 36.0736 -114.8897 271° West 184 212 5,800 -984 Descending Los Angeles Center
Fri 01:57:05 AM 36.0744 -114.9083 273° West 202 232 5,400 -1,000 Descending Los Angeles Center
Fri 01:57:21 AM 36.0742 -114.9319 269° West 162 186 5,100 -787 Descending Los Angeles Center
Fri 01:58:06 AM 36.0728 -114.9622 267° West 180 207 4,600 -847 Descending Los Angeles Center
Fri 01:58:46 AM 36.0728 -115.0044 270° West 140 161 3,900 -787 Descending Los Angeles Center
Fri 01:59:07 AM 36.0744 -115.0122 285° West 163 188 3,800 -649 Descending Los Angeles Center
Fri 01:59:23 AM 36.0728 -115.0336 264° West 140 161 3,500 -885 Descending Los Angeles Center
Fri 02:00:08 AM 36.0739 -115.0675 272° West 146 168 2,900 -725 Descending Los Angeles Center
Fri 02:00:54 AM 36.0733 -115.1053 269° West 137 158 2,400 -689 Descending Los Angeles Center
Fri 02:01:09 AM 36.0733 -115.1153 270° West 141 162 2,200 -800 Descending Los Angeles Center
Fri 02:03:00 AM 36.0667 -115.1500 270° West  Level FlightAware Approximate

Login

Don't have an account? Register now (free) for customized features, flight alerts, and more!